Bordeaux-Mérignac Airport

LFBD · Nouvelle-Aquitaine, France

October 1, 2022

Time Code Weather Temp. Visibility Ceiling Wind METAR/SPECI
20:00
M
19 °C 10 km+ 2,800 ft 250° 250° 8 kt METAR LFBD 011800Z AUTO 25008KT 9999 FEW012 SCT019 BKN028 19/17 Q1025 TEMPO BKN008
19:30
M
19 °C 10 km+ 2,900 ft 250° 250° 9 kt METAR LFBD 011730Z AUTO 25009KT 9999 FEW010 BKN029 BKN037 19/18 Q1025 TEMPO BKN008
19:00
M
19 °C 10 km+ 1,800 ft 260° 260° 8 kt METAR LFBD 011700Z AUTO 26008KT 9999 SCT013 BKN018 BKN024 19/18 Q1024 TEMPO 2000 DZRA OVC003
18:30
M
19 °C 10 km+ 1,200 ft 260° 260° 8 kt METAR LFBD 011630Z AUTO 26008KT 9999 -RADZ SCT008 BKN012 BKN018 19/18 Q1024 TEMPO 2000 DZRA BECMG OVC020
18:00
I
19 °C 10 km+ 800 ft 250° 250° 9 kt METAR LFBD 011600Z AUTO 25009KT 9999 BKN008 OVC014 19/18 Q1024 TEMPO 2000 DZRA OVC003
17:30
I
19 °C 7 km 700 ft 270° 270° 12 kt METAR LFBD 011530Z AUTO 27012KT 7000 BKN007 BKN013 BKN029 19/18 Q1024 TEMPO 2000 DZRA OVC003
17:00
I
19 °C 4.4 km 600 ft 250° 250° 11 kt METAR LFBD 011500Z AUTO 25011KT 4400 -RA BR BKN006 OVC024 19/18 Q1024 TEMPO 2000 DZRA OVC003
16:30
I
19 °C 3.7 km 500 ft 250° 250° 13 kt METAR LFBD 011430Z AUTO 25013KT 3700 -RA BR BKN005 OVC009 19/18 Q1023 TEMPO 2000 DZRA
16:00
I
19 °C 5 km 600 ft 240° 240° 15 kt METAR LFBD 011400Z AUTO 24015KT 5000 BR OVC006 19/18 Q1023 TEMPO 2000 DZRA OVC003
15:30
I
19 °C 3.2 km 600 ft 250° 250° 14 kt METAR LFBD 011330Z AUTO 25014KT 3200 -RA BR OVC006 19/18 Q1023 TEMPO 2000 DZRA OVC003
15:00
I
19 °C 4.2 km 600 ft 240° 240° 15 kt METAR LFBD 011300Z AUTO 24015KT 4200 -RA BR BKN006 OVC014 19/18 Q1023 TEMPO 2000 DZRA OVC003
14:30
I
19 °C 2.9 km 600 ft 240° 240° 17 kt METAR LFBD 011230Z AUTO 24017KT 2900 -RA BR BKN006 OVC014 19/18 Q1023 TEMPO DZRA OVC003
14:00
I
19 °C 3.6 km 900 ft 240° 240° 15 kt METAR LFBD 011200Z AUTO 24015KT 3600 -RA BR BKN009 BKN016 BKN023 19/18 Q1023 TEMPO 2000 DZRA OVC003
13:30
M
19 °C 10 km+ 1,200 ft 250° 250° 13 kt METAR LFBD 011130Z AUTO 25013KT 9999 BKN012 BKN023 BKN035 19/18 Q1022 TEMPO 2000 DZRA OVC005
13:00
M
19 °C 10 km+ 1,100 ft 250° 250° 14 kt METAR LFBD 011100Z AUTO 25014KT 230V290 9999 BKN011 OVC018 19/17 Q1022 TEMPO 2000 DZRA OVC005
12:30
I
19 °C 10 km+ 900 ft 250° 250° 14 kt METAR LFBD 011030Z AUTO 25014KT 9999 BKN009 OVC014 19/17 Q1022 TEMPO 2000 DZRA
12:00
I
19 °C 2 km 700 ft 250° 250° 16 kt METAR LFBD 011000Z AUTO 25016KT 9999 2000 -RA BKN007 OVC011 19/18 Q1021 TEMPO 2000 DZRA
11:30
I
19 °C 10 km+ 900 ft 250° 250° 16 kt METAR LFBD 010930Z AUTO 25016KT 9999 OVC009 19/18 Q1021 TEMPO 2000 DZRA
11:00
I
18 °C 10 km+ 700 ft 250° 250° 14 kt METAR LFBD 010900Z AUTO 25014KT 9999 -DZ OVC007 18/17 Q1021 TEMPO 2000 DZRA
10:30
I
18 °C 8 km 600 ft 240° 240° 15 kt METAR LFBD 010830Z AUTO 24015KT 8000 -DZ OVC006 18/17 Q1021 TEMPO 2000 DZRA
10:00
I
17 °C 7 km 500 ft 240° 240° 14 kt METAR LFBD 010800Z AUTO 24014KT 220V290 7000 DZ OVC005 17/17 Q1020 TEMPO 2000 DZRA
09:30
I
17 °C 4.7 km 500 ft 240° 240° 13 kt METAR LFBD 010730Z AUTO 24013KT 9999 4700 -RA BKN005 OVC009 17/16 Q1020 TEMPO 2000 DZRA
09:00
I
17 °C 1.9 km 500 ft 230° 230° 14 kt METAR LFBD 010700Z AUTO 23014KT 5000 1900 DZ BR OVC005 17/16 Q1020 TEMPO 2000 DZRA
08:30
I
16 °C 4.6 km 500 ft 230° 230° 14 kt METAR LFBD 010630Z AUTO 23014KT 4600 -DZ BR OVC005 16/16 Q1019 TEMPO 2000 DZRA
08:00
I
17 °C 6 km 500 ft 230° 230° 14 kt METAR LFBD 010600Z AUTO 23014KT 6000 -DZ BKN005 OVC009 17/16 Q1019 TEMPO 2000 DZRA
07:30
I
16 °C 4.9 km 500 ft 230° 230° 12 kt METAR LFBD 010530Z AUTO 23012KT 4900 -DZ BR OVC005 16/16 Q1019 TEMPO 2000 DZRA
07:00
I
16 °C 3.8 km 500 ft 220° 220° 9 kt METAR LFBD 010500Z AUTO 22009KT 3800 -DZ BR BKN005 OVC014 16/15 Q1018 TEMPO 2000 DZRA
06:30
M
15 °C 10 km+ 1,300 ft 210° 210° 9 kt METAR LFBD 010430Z AUTO 21009KT 9999 SCT006 BKN013 BKN020 15/15 Q1018 TEMPO 2000 DZRA OVC015
06:00
V
15 °C 10 km+ 4,700 ft 210° 210° 9 kt METAR LFBD 010400Z AUTO 21009KT 9999 FEW019 SCT029 BKN047 15/14 Q1018 TEMPO 4000 -RA
05:30
M
15 °C 10 km+ 2,300 ft 200° 200° 9 kt METAR LFBD 010330Z AUTO 20009KT 9999 -DZ FEW016 BKN023 BKN036 15/14 Q1018 TEMPO 4000 -RA
05:00
M
15 °C 10 km+ 2,600 ft 210° 210° 9 kt METAR LFBD 010300Z AUTO 21009KT 9999 -RA SCT020 BKN026 BKN032 15/14 Q1018 TEMPO 4000 -RA
04:30
V
15 °C 10 km+ 3,700 ft 200° 200° 9 kt METAR LFBD 010230Z AUTO 20009KT 9999 FEW024 BKN037 OVC043 15/13 Q1018 TEMPO 4000 -RA
04:00
V
14 °C 10 km+ 4,400 ft 190° 190° 8 kt METAR LFBD 010200Z AUTO 19008KT 9999 BKN044 BKN052 OVC088 14/13 Q1018 TEMPO 4000 -RA
03:30
V
14 °C 10 km+ 9,400 ft 200° 200° 7 kt METAR LFBD 010130Z AUTO 20007KT 9999 FEW025 BKN094 BKN110 14/13 Q1018 TEMPO 4000 -RA
03:00
V
14 °C 10 km+ - 190° 190° 7 kt METAR LFBD 010100Z AUTO 19007KT CAVOK 14/13 Q1018 NOSIG
02:30
V
14 °C 10 km+ 11,000 ft 200° 200° 6 kt METAR LFBD 010030Z AUTO 20006KT 9999 -RADZ FEW035/// OVC110/// ///TCU 14/13 Q1018 BECMG SCT030 BKN050
02:00
V
14 °C 10 km+ - 190° 190° 7 kt METAR LFBD 010000Z AUTO 19007KT 9999 -RA //////CB 14/12 Q1018 BECMG SCT035
01:30
V
14 °C 10 km+ - 190° 190° 8 kt METAR LFBD 302330Z AUTO 19008KT 9999 -RA //////TCU 14/11 Q1018 BECMG SCT035
01:00
V
14 °C 10 km+ - 190° 190° 7 kt METAR LFBD 302300Z AUTO 19007KT CAVOK 14/11 Q1018 NOSIG
00:30
V
14 °C 10 km+ 3,400 ft 190° 190° 8 kt METAR LFBD 302230Z AUTO 19008KT 9999 -RADZ SCT028 BKN034 BKN042 14/11 Q1019 NOSIG
00:00
V
14 °C 10 km+ 3,600 ft 200° 200° 7 kt METAR LFBD 302200Z AUTO 20007KT 9999 -RA BKN036/// BKN043/// OVC054/// //////TCU 14/11 Q1018 BECMG SCT035

September 30, 2022

Time Code Weather Temp. Visibility Ceiling Wind METAR/SPECI
23:30
V
14 °C 10 km+ 10,000 ft 200° 200° 6 kt METAR LFBD 302130Z AUTO 20006KT 9999 FEW039 OVC100 14/10 Q1018 NOSIG
23:00
V
14 °C 10 km+ - 190° 190° 6 kt METAR LFBD 302100Z AUTO 19006KT CAVOK 14/10 Q1018 NOSIG
22:30
V
14 °C 10 km+ - 190° 190° 6 kt METAR LFBD 302030Z AUTO 19006KT CAVOK 14/10 Q1018 NOSIG
22:00
V
14 °C 10 km+ - 200° 200° 5 kt METAR LFBD 302000Z AUTO 20005KT CAVOK 14/10 Q1018 NOSIG
21:30
V
14 °C 10 km+ - 200° 200° 5 kt METAR LFBD 301930Z AUTO 20005KT CAVOK 14/10 Q1018 NOSIG
21:00
V
14 °C 10 km+ - 210° 210° 4 kt METAR LFBD 301900Z AUTO 21004KT CAVOK 14/09 Q1018 NOSIG
20:30
V
15 °C 10 km+ - 240° 240° 3 kt METAR LFBD 301830Z AUTO 24003KT CAVOK 15/09 Q1018 NOSIG
20:00
V
16 °C 10 km+ - 260° 260° 5 kt METAR LFBD 301800Z AUTO 26005KT CAVOK 16/09 Q1017 NOSIG
19:30
V
16 °C 10 km+ - 270° 270° 8 kt METAR LFBD 301730Z AUTO 27008KT CAVOK 16/09 Q1017 NOSIG
19:00
V
17 °C 10 km+ - 270° 270° 11 kt METAR LFBD 301700Z AUTO 27011KT 9999 FEW040 17/09 Q1017 BECMG 35004KT
18:30
V
18 °C 10 km+ - 270° 270° 10 kt METAR LFBD 301630Z AUTO 27010KT CAVOK 18/06 Q1017 BECMG 35004KT
18:00
V
19 °C 10 km+ - 280° 280° 12 kt METAR LFBD 301600Z AUTO 28012KT CAVOK 19/07 Q1016 BECMG 35004KT
17:30
V
19 °C 10 km+ - 300° 300° 11 kt METAR LFBD 301530Z AUTO 30011KT 270V330 CAVOK 19/06 Q1016 NOSIG
17:00
V
20 °C 10 km+ - 280° 280° 9 kt METAR LFBD 301500Z AUTO 28009KT 250V310 CAVOK 20/06 Q1016 NOSIG
16:30
V
20 °C 10 km+ - 280° 280° 7 kt METAR LFBD 301430Z AUTO 28007KT 250V320 CAVOK 20/07 Q1015 NOSIG
16:00
V
20 °C 10 km+ - 250° 250° 7 kt METAR LFBD 301400Z AUTO 25007KT 210V300 CAVOK 20/07 Q1015 NOSIG
15:30
V
20 °C 10 km+ - 260° 260° 5 kt METAR LFBD 301330Z AUTO 26005KT 210V330 CAVOK 20/07 Q1015 NOSIG
15:00
V
19 °C 10 km+ - 290° 290° 6 kt METAR LFBD 301300Z AUTO 29006KT 230V350 9999 FEW047 SCT054 19/06 Q1015 NOSIG
14:30
V
19 °C 10 km+ - Var Var 3 kt METAR LFBD 301230Z AUTO VRB03KT 9999 SCT046 SCT052 19/08 Q1016 NOSIG
14:00
V
18 °C 10 km+ - Var Var 3 kt METAR LFBD 301200Z AUTO VRB03KT 9999 FEW043 18/08 Q1016 NOSIG
13:30
V
18 °C 10 km+ - Var Var 3 kt METAR LFBD 301130Z AUTO VRB03KT 9999 SCT042 18/08 Q1016 NOSIG
13:00
V
18 °C 10 km+ - 010° 010° 3 kt METAR LFBD 301100Z AUTO 01003KT 280V070 9999 FEW037 18/09 Q1016 NOSIG
12:30
V
17 °C 10 km+ - 310° 310° 3 kt METAR LFBD 301030Z AUTO 31003KT 230V010 9999 FEW031 17/08 Q1015 NOSIG
12:00
V
17 °C 10 km+ - 340° 340° 4 kt METAR LFBD 301000Z AUTO 34004KT 300V060 9999 FEW029 17/09 Q1015 NOSIG
11:30
V
16 °C 10 km+ - 320° 320° 4 kt METAR LFBD 300930Z AUTO 32004KT 270V010 CAVOK 16/09 Q1015 NOSIG
11:00
I
15 °C 2.5 km - 310° 310° 3 kt METAR LFBD 300900Z AUTO 31003KT 280V010 9999 2500 NSC 15/10 Q1015 NOSIG
10:30
L
14 °C 700 m - Var Var 2 kt METAR LFBD 300830Z AUTO VRB02KT 9999 0700 R23/P2300 R05/P2300 R29/1400D // NSC 14/10 Q1015
10:00
V
12 °C 10 km+ - 360° 360° 3 kt METAR LFBD 300800Z AUTO 36003KT 320V060 CAVOK 12/10 Q1014 NOSIG
09:30
I
11 °C 2.3 km - Var Var 1 kt METAR LFBD 300730Z AUTO VRB01KT 9999 2300 NSC 11/10 Q1014 NOSIG
09:00
L
10 °C 900 m - Var 000° 0 kt METAR LFBD 300700Z AUTO 00000KT 9999 0900 R23/P2300 R05/1300D R29/1600D BCFG NSC 10/09 Q1013 TEMPO 3000 MIFG
08:30
I
9 °C 3.3 km - Var Var 2 kt METAR LFBD 300630Z AUTO VRB02KT 9999 3300 R05/1300U NSC 09/08 Q1013 TEMPO 3000 MIFG
08:00
L
9 °C 400 m - 320° 320° 2 kt METAR LFBD 300600Z AUTO 32002KT 3400 0400 R23/P2300 R05/0900U R29/P2300 BCFG NSC 09/08 Q1012 NOSIG
07:30
I
9 °C 2.3 km - Var 000° 0 kt METAR LFBD 300530Z AUTO 00000KT 9999 2300 NSC 09/08 Q1012 TEMPO 3000 MIFG
07:00
V
9 °C 10 km+ - Var Var 2 kt METAR LFBD 300500Z AUTO VRB02KT CAVOK 09/08 Q1012 TEMPO 3000 MIFG
06:30
V
10 °C 10 km+ - Var Var 3 kt METAR LFBD 300430Z AUTO VRB03KT CAVOK 10/09 Q1011 TEMPO 3000 MIFG
06:00
V
10 °C 10 km+ - 240° 240° 1 kt METAR LFBD 300400Z AUTO 24001KT CAVOK 10/09 Q1011
05:30
V
10 °C 10 km+ - Var Var 3 kt METAR LFBD 300330Z AUTO VRB03KT CAVOK 10/09 Q1010
05:00
V
10 °C 10 km+ - 270° 270° 2 kt METAR LFBD 300300Z AUTO 27002KT CAVOK 10/09 Q1010
04:30
V
10 °C 10 km+ - 250° 250° 3 kt METAR LFBD 300230Z AUTO 25003KT CAVOK 10/09 Q1010
04:00
V
10 °C 10 km+ - 240° 240° 3 kt METAR LFBD 300200Z AUTO 24003KT CAVOK 10/09 Q1010
03:30
V
10 °C 10 km+ - 230° 230° 2 kt METAR LFBD 300130Z AUTO 23002KT CAVOK 10/09 Q1010
03:00
V
9 °C 10 km+ - 220° 220° 3 kt METAR LFBD 300100Z AUTO 22003KT CAVOK 09/08 Q1010 TEMPO 3000 MIFG
02:30
I
9 °C 4.6 km - 240° 240° 3 kt METAR LFBD 300030Z AUTO 24003KT 9999 4600 R05/1300U NSC 09/08 Q1009 TEMPO 3000 MIFG
02:00
I
10 °C 1.8 km - 230° 230° 2 kt METAR LFBD 300000Z AUTO 23002KT 9999 1800 NSC 10/08 Q1009 NOSIG
01:30
V
11 °C 10 km+ - Var Var 3 kt METAR LFBD 292330Z AUTO VRB03KT CAVOK 11/09 Q1009 NOSIG
01:00
V
11 °C 10 km+ - Var Var 3 kt METAR LFBD 292300Z AUTO VRB03KT 9999 FEW020 11/09 Q1009 NOSIG
00:30
V
11 °C 10 km+ 7,600 ft 280° 280° 4 kt METAR LFBD 292230Z AUTO 28004KT 260V320 9999 SCT022 BKN076 11/09 Q1009 NOSIG
00:00
V
11 °C 10 km+ 8,000 ft 300° 300° 3 kt METAR LFBD 292200Z AUTO 30003KT 280V350 9999 FEW024 BKN080 11/09 Q1009 TEMPO 3000 SHRA FEW020CB BKN030TCU

September 29, 2022

Time Code Weather Temp. Visibility Ceiling Wind METAR/SPECI
23:30
V
11 °C 10 km+ - 290° 290° 3 kt METAR LFBD 292130Z AUTO 29003KT 260V320 9999 //////TCU 11/09 Q1008 TEMPO 3000 SHRA FEW020CB BKN030TCU
23:00
V
11 °C 10 km+ - 280° 280° 4 kt METAR LFBD 292100Z AUTO 28004KT CAVOK 11/09 Q1008 TEMPO 3000 SHRA FEW020CB BKN030TCU
22:30
V
12 °C 10 km+ - 290° 290° 3 kt METAR LFBD 292030Z AUTO 29003KT CAVOK 12/09 Q1008 TEMPO 3000 SHRA FEW020CB BKN030TCU
22:00
V
12 °C 10 km+ - 290° 290° 3 kt METAR LFBD 292000Z AUTO 29003KT 280V340 CAVOK 12/09 Q1008 TEMPO 3000 SHRA FEW020CB BKN030TCU
21:30
V
12 °C 10 km+ - 300° 300° 5 kt METAR LFBD 291930Z AUTO 30005KT 280V010 CAVOK 12/09 Q1007 TEMPO 3000 SHRA FEW020CB BKN030TCU
21:00
V
13 °C 10 km+ - 300° 300° 4 kt METAR LFBD 291900Z AUTO 30004KT CAVOK 13/08 Q1007 TEMPO FEW030TCU
20:30
V
14 °C 10 km+ - 320° 320° 6 kt METAR LFBD 291830Z AUTO 32006KT CAVOK 14/08 Q1006 TEMPO FEW030TCU
20:00
V
14 °C 10 km+ - 310° 310° 7 kt METAR LFBD 291800Z AUTO 31007KT CAVOK 14/08 Q1006 TEMPO FEW030TCU
19:30
V
15 °C 10 km+ - 310° 310° 8 kt METAR LFBD 291730Z AUTO 31008KT 9999 //////CB 15/08 Q1005 BECMG SCT030 BKN060
19:00
V
16 °C 10 km+ - 300° 300° 7 kt METAR LFBD 291700Z AUTO 30007KT 280V350 9999 ///CB 16/09 Q1005 BECMG SCT030 BKN060
18:30
V
16 °C 10 km+ - 310° 310° 6 kt METAR LFBD 291630Z AUTO 31006KT 290V010 9999 FEW033/// //////CB 16/09 Q1005 BECMG SCT030 BKN060
18:00
V
17 °C 10 km+ 24,000 ft 310° 310° 7 kt METAR LFBD 291600Z AUTO 31007KT 280V360 9999 SCT032/// SCT039/// BKN240/// //////TCU 17/11 Q1004 BECMG SCT030 BKN060
17:30
V
16 °C 10 km+ 9,200 ft 360° 360° 7 kt METAR LFBD 291530Z AUTO 36007KT 340V060 9999 FEW046/// BKN092/// //////TCU 16/11 Q1004 BECMG SCT030 BKN060
17:00
V
15 °C 10 km+ 3,300 ft 360° 360° 8 kt METAR LFBD 291500Z AUTO 36008KT 340V060 9999 -RA FEW024/// BKN033/// BKN056/// ///CB 15/12 Q1004 BECMG SCT030 BKN060
Older data

We and third parties follow your internet behavior on our website with cookies. If you continue, we assume you agree with our cookie policy. Learn more